»·PEaware :: DHK808 KLAS-KSFO

DHK808 :: KLAS-KSFO

FLIGHT INFORMATION

Flight Status: Arrived
Operator:
DHL Air
More flights by this operator :: More flights under this callsign
Pilot: Anonymous 17772 (17772)
Aircraft: BOEING 757-200
(B752)
More flights by this aircraft type
Origin: KLAS McCarran Intl
United States
Destination: KSFO San Francisco Intl
United States
More flights between these airports :: More routes between these airports
Route: +SHEAD1 KENNO RUSME DYAMD3
File this flight plan on PilotEdge
Remarks:
Altitude:
(Current/Filed)
36,000ft
Speed:
(Current/Filed)
300kts
Departed: 09-Jan-18 01:54 PM
Arrived: 09-Jan-18 03:27 PM
Distance/Time
Traveled:
360nm/1:33
Distance/Time
To Go:
Arrived

Flight Plot

Page will automatically refresh every two minutes.

Flight plan parsing failed; only flown route is shown


Map Options




Map Legend


Flown Route
Filed Route
Departure Airport
Arrival Airport
Navaid (VOR, NDB)
Fix

Horizontal Profiles

Position Reports

Time Latitude Longitude Heading Altitude Ground
Speed
09-Jan-18 13:40 36.092932 -115.163544 23 2126ft 0kts
09-Jan-18 13:41 36.092932 -115.163544 23 2126ft 0kts
09-Jan-18 13:42 36.092932 -115.163544 23 2126ft 0kts
09-Jan-18 13:43 36.092932 -115.163544 23 2126ft 0kts
09-Jan-18 13:44 36.092932 -115.163544 23 2126ft 0kts
09-Jan-18 13:45 36.092932 -115.163544 23 2126ft 0kts
09-Jan-18 13:46 36.092932 -115.163544 23 2126ft 0kts
09-Jan-18 13:47 36.092731 -115.163652 21 2127ft 2kts
09-Jan-18 13:48 36.092158 -115.163747 41 2128ft 2kts
09-Jan-18 13:49 36.092232 -115.164319 154 2130ft 0kts
09-Jan-18 13:50 36.092246 -115.164328 153 2130ft 0kts
09-Jan-18 13:51 36.092246 -115.164328 153 2130ft 0kts
09-Jan-18 13:52 36.092090 -115.164221 149 2130ft 8kts
09-Jan-18 13:53 36.091995 -115.164145 147 2130ft 0kts
09-Jan-18 13:54 36.091995 -115.164145 147 2130ft 0kts
09-Jan-18 13:55 36.091785 -115.163963 139 2130ft 9kts
09-Jan-18 13:56 36.098432 -115.159497 27 2102ft 30kts
09-Jan-18 13:57 36.099837 -115.157585 87 2093ft 0kts
09-Jan-18 13:58 36.099837 -115.157583 87 2093ft 0kts
09-Jan-18 13:59 36.099837 -115.157582 87 2093ft 0kts
09-Jan-18 14:00 36.094160 -115.159561 204 2110ft 102kts
09-Jan-18 14:01 36.048164 -115.185963 204 3250ft 272kts
09-Jan-18 14:02 35.993677 -115.254143 241 8094ft 250kts
09-Jan-18 14:03 35.953237 -115.323594 226 9016ft 252kts
09-Jan-18 14:04 35.903304 -115.384357 226 9014ft 251kts
09-Jan-18 14:05 35.887893 -115.470043 267 10430ft 314kts
09-Jan-18 14:06 35.889508 -115.575594 267 11018ft 320kts
09-Jan-18 14:07 35.891482 -115.683866 266 11925ft 332kts
09-Jan-18 14:08 35.893413 -115.799285 265 14680ft 344kts
09-Jan-18 14:09 35.895315 -115.918944 264 17142ft 355kts
09-Jan-18 14:10 35.946088 -116.028108 311 19351ft 402kts
09-Jan-18 14:11 36.029070 -116.123776 311 21413ft 416kts
09-Jan-18 14:12 36.113839 -116.221614 310 23286ft 428kts
09-Jan-18 14:13 36.201364 -116.322924 310 25022ft 438kts
09-Jan-18 14:14 36.290897 -116.426923 310 26495ft 451kts
09-Jan-18 14:15 36.383114 -116.534355 309 27985ft 461kts
09-Jan-18 14:16 36.477299 -116.644489 309 29307ft 472kts
09-Jan-18 14:17 36.573580 -116.752818 318 30651ft 489kts
09-Jan-18 14:18 36.690144 -116.842925 321 32099ft 497kts
09-Jan-18 14:19 36.806440 -116.931681 321 34117ft 486kts
09-Jan-18 14:20 36.919703 -117.018328 323 35824ft 472kts
09-Jan-18 14:21 37.029562 -117.102617 326 35837ft 457kts
09-Jan-18 14:22 37.135924 -117.184430 326 35831ft 451kts
09-Jan-18 14:23 37.242723 -117.266854 326 35828ft 452kts
09-Jan-18 14:24 37.343541 -117.358513 318 35834ft 449kts
09-Jan-18 14:25 37.438638 -117.460084 316 35818ft 449kts
09-Jan-18 14:26 37.499904 -117.591371 279 35804ft 438kts
09-Jan-18 14:27 37.512682 -117.739121 273 35803ft 435kts
09-Jan-18 14:28 37.524873 -117.890793 273 35787ft 435kts
09-Jan-18 14:29 37.536920 -118.042284 273 35786ft 435kts
09-Jan-18 14:30 37.548769 -118.193692 273 35787ft 435kts
09-Jan-18 14:31 37.560450 -118.345387 273 35788ft 435kts
09-Jan-18 14:32 37.571939 -118.497099 273 35800ft 436kts
09-Jan-18 14:33 37.583230 -118.648885 273 35815ft 435kts
09-Jan-18 14:34 37.593936 -118.795318 273 35817ft 435kts
09-Jan-18 14:35 37.604573 -118.943762 275 35815ft 423kts
09-Jan-18 14:36 37.615012 -119.091612 277 35803ft 427kts
09-Jan-18 14:37 37.625366 -119.240731 277 35814ft 427kts
09-Jan-18 14:38 37.635550 -119.390458 277 35805ft 429kts
09-Jan-18 14:39 37.645553 -119.540149 277 35805ft 428kts
09-Jan-18 14:40 37.655001 -119.684413 277 35812ft 429kts
09-Jan-18 14:41 37.664529 -119.832820 276 34162ft 419kts
09-Jan-18 14:42 37.673717 -119.978383 276 32256ft 418kts
09-Jan-18 14:43 37.682751 -120.124198 275 30389ft 415kts
09-Jan-18 14:44 37.691349 -120.266553 276 28536ft 401kts
09-Jan-18 14:45 37.698092 -120.404281 267 26722ft 391kts
09-Jan-18 14:46 37.683865 -120.538301 263 24814ft 382kts
09-Jan-18 14:47 37.669021 -120.665665 261 23003ft 371kts
09-Jan-18 14:48 37.654028 -120.791815 261 21266ft 362kts
09-Jan-18 14:49 37.639200 -120.914902 261 19521ft 352kts
09-Jan-18 14:50 37.623850 -121.034219 260 18042ft 339kts
09-Jan-18 14:51 37.608450 -121.149361 259 16596ft 331kts
09-Jan-18 14:52 37.593206 -121.262452 259 15123ft 326kts
09-Jan-18 14:53 37.580199 -121.375150 260 13706ft 324kts
09-Jan-18 14:54 37.567259 -121.486917 261 12311ft 320kts
09-Jan-18 14:55 37.554413 -121.596968 261 11011ft 313kts
09-Jan-18 14:56 37.533970 -121.696629 252 10229ft 283kts
09-Jan-18 14:57 37.511355 -121.791187 253 9079ft 274kts
09-Jan-18 14:58 37.493094 -121.878189 274 8209ft 259kts
09-Jan-18 14:59 37.505191 -121.965392 281 7267ft 251kts
09-Jan-18 15:00 37.521351 -122.049279 285 6487ft 236kts
09-Jan-18 15:01 37.536596 -122.111940 287 6165ft 210kts
09-Jan-18 15:02 37.554544 -122.175280 289 5311ft 179kts
09-Jan-18 15:03 37.572337 -122.231491 291 3821ft 170kts
09-Jan-18 15:04 37.593782 -122.295310 287 3786ft 167kts
09-Jan-18 15:05 37.606349 -122.340770 289 2961ft 160kts
09-Jan-18 15:06 37.623310 -122.393819 294 2980ft 162kts
09-Jan-18 15:07 37.643214 -122.444574 294 2980ft 160kts
09-Jan-18 15:08 37.662539 -122.495840 294 3106ft 173kts
09-Jan-18 15:09 37.682818 -122.548443 294 6695ft 167kts
09-Jan-18 15:10 37.713953 -122.597167 318 6930ft 184kts
09-Jan-18 15:11 37.743311 -122.561210 122 7030ft 222kts
09-Jan-18 15:12 37.710968 -122.491386 147 6998ft 237kts
09-Jan-18 15:13 37.680900 -122.528678 302 7029ft 227kts
09-Jan-18 15:14 37.715488 -122.593901 324 7003ft 227kts
09-Jan-18 15:15 37.761364 -122.557153 97 7034ft 251kts
09-Jan-18 15:16 37.730539 -122.481894 123 6998ft 244kts
09-Jan-18 15:17 37.696695 -122.408497 123 6053ft 243kts
09-Jan-18 15:18 37.662938 -122.335086 123 5122ft 241kts
09-Jan-18 15:19 37.629126 -122.263353 123 4992ft 237kts
09-Jan-18 15:20 37.594762 -122.192469 123 4985ft 235kts
09-Jan-18 15:21 37.559701 -122.123524 132 5026ft 234kts
09-Jan-18 15:22 37.524299 -122.057357 96 4112ft 234kts
09-Jan-18 15:23 37.544202 -121.982085 104 4040ft 233kts
09-Jan-18 15:24 37.503468 -121.925601 182 4030ft 224kts
09-Jan-18 15:25 37.471748 -121.981550 263 4036ft 216kts
09-Jan-18 15:26 37.478029 -122.053199 306 4099ft 219kts
09-Jan-18 15:27 37.511050 -122.116771 299 4079ft 217kts
09-Jan-18 15:28 37.540028 -122.182299 297 3109ft 199kts
09-Jan-18 15:29 37.563310 -122.237337 297 2136ft 156kts
09-Jan-18 15:30 37.580524 -122.278367 297 1396ft 119kts
09-Jan-18 15:31 37.595688 -122.314491 297 774ft 115kts
09-Jan-18 15:32 37.610375 -122.349550 296 176ft 111kts
09-Jan-18 15:33 37.618938 -122.370266 301 15ft 20kts
09-Jan-18 15:34 37.623259 -122.380582 297 31ft 50kts
09-Jan-18 15:35 37.628487 -122.391245 333 21ft 2kts
09-Jan-18 15:36 37.630780 -122.394187 240 18ft 14kts
09-Jan-18 15:37 37.628636 -122.396621 184 21ft 10kts
09-Jan-18 15:38 37.626775 -122.395731 140 22ft 12kts
09-Jan-18 15:39 37.625099 -122.395604 165 25ft 2kts
09-Jan-18 15:40 37.625095 -122.395603 165 25ft 0kts
09-Jan-18 15:41 37.625095 -122.395603 165 25ft 0kts
09-Jan-18 15:42 37.625095 -122.395603 165 25ft 0kts

Navigation Log

Ident Type
Flight plan parsing failed, navigation log unavailable